createdAt,value
2017-12-06T00:00:25.105Z,84.20
2017-12-06T00:02:53.630Z,83.90
2017-12-06T00:05:21.935Z,83.70
2017-12-06T00:07:49.544Z,83.50
2017-12-06T00:10:17.891Z,83.00
2017-12-06T00:12:51.220Z,83.00
2017-12-06T00:15:25.158Z,82.60
2017-12-06T00:17:52.755Z,82.60
2017-12-06T00:20:21.201Z,82.10
2017-12-06T00:22:48.796Z,82.20
2017-12-06T00:25:16.454Z,82.00
2017-12-06T00:27:44.051Z,82.70
2017-12-06T00:30:12.388Z,82.00
2017-12-06T00:32:40.007Z,82.00
2017-12-06T00:35:07.581Z,82.10
2017-12-06T00:37:35.155Z,82.20
2017-12-06T00:40:02.751Z,82.20
2017-12-06T00:42:31.103Z,82.20
2017-12-06T00:44:58.696Z,82.20
2017-12-06T00:47:27.064Z,81.70
2017-12-06T00:49:54.664Z,81.70
2017-12-06T00:52:22.240Z,81.40
2017-12-06T00:54:49.946Z,81.40
2017-12-06T00:57:17.519Z,81.00
2017-12-06T00:59:45.887Z,81.10
2017-12-06T01:02:14.232Z,80.90
2017-12-06T01:04:41.928Z,80.90
2017-12-06T01:07:09.500Z,80.80
2017-12-06T01:09:38.600Z,80.20
2017-12-06T01:12:06.235Z,80.20
2017-12-06T01:14:33.912Z,80.00
2017-12-06T01:17:01.572Z,79.70
2017-12-06T01:19:29.167Z,79.30
2017-12-06T01:21:57.556Z,78.90
2017-12-06T01:24:25.111Z,78.90
2017-12-06T01:26:53.471Z,79.10
2017-12-06T01:29:21.043Z,78.90
2017-12-06T01:31:49.399Z,79.00
2017-12-06T01:34:16.970Z,78.90
2017-12-06T01:36:44.615Z,78.70
2017-12-06T01:39:12.279Z,78.60
2017-12-06T01:41:41.474Z,78.80
2017-12-06T01:44:09.055Z,78.80
2017-12-06T01:46:36.655Z,78.70
2017-12-06T01:49:04.260Z,79.50
2017-12-06T01:51:31.923Z,78.70
2017-12-06T01:53:59.588Z,78.70
2017-12-06T01:56:27.948Z,78.60
2017-12-06T01:58:55.637Z,78.40
2017-12-06T02:01:23.295Z,78.30
2017-12-06T02:03:52.380Z,78.00
2017-12-06T02:06:19.959Z,78.00
2017-12-06T02:08:47.555Z,77.80
2017-12-06T02:11:15.185Z,77.90
2017-12-06T02:13:42.784Z,77.60
2017-12-06T02:16:10.360Z,77.60
2017-12-06T02:18:38.064Z,77.00
2017-12-06T02:21:07.147Z,77.20
2017-12-06T02:23:34.752Z,77.20
2017-12-06T02:26:03.096Z,76.90
2017-12-06T02:28:31.461Z,76.90
2017-12-06T02:30:59.135Z,77.00
2017-12-06T02:33:26.795Z,77.20
2017-12-06T02:35:54.368Z,77.40
2017-12-06T02:38:23.495Z,77.70
2017-12-06T02:41:03.716Z,77.80
2017-12-06T02:43:44.797Z,78.20
2017-12-06T02:46:13.988Z,78.50
2017-12-06T02:48:41.620Z,78.40
2017-12-06T02:51:09.211Z,78.80
2017-12-06T02:53:36.784Z,78.90
2017-12-06T02:56:04.437Z,78.90
2017-12-06T02:58:32.016Z,78.80
2017-12-06T03:01:00.393Z,79.30
2017-12-06T03:03:28.745Z,79.70
2017-12-06T03:05:56.344Z,78.80
2017-12-06T03:08:24.805Z,78.90
2017-12-06T03:10:52.404Z,78.90
2017-12-06T03:13:19.987Z,79.00
2017-12-06T03:15:47.584Z,79.20
2017-12-06T03:18:15.253Z,79.40
2017-12-06T03:20:43.621Z,79.80
2017-12-06T03:23:11.200Z,79.80
2017-12-06T03:25:38.848Z,79.70
2017-12-06T03:28:07.296Z,80.00
2017-12-06T03:30:34.926Z,79.90
2017-12-06T03:33:03.376Z,80.20
2017-12-06T03:35:31.569Z,80.10
2017-12-06T03:37:59.941Z,80.30
2017-12-06T03:40:27.524Z,80.30
2017-12-06T03:42:55.884Z,80.40
2017-12-06T03:45:24.237Z,79.70
2017-12-06T03:47:51.844Z,80.40
2017-12-06T03:50:20.287Z,80.50
2017-12-06T03:52:47.957Z,80.40
2017-12-06T03:55:15.545Z,80.30
2017-12-06T03:57:43.917Z,80.40
2017-12-06T04:00:12.255Z,80.30
2017-12-06T04:02:39.861Z,80.30
2017-12-06T04:05:08.316Z,80.30
2017-12-06T04:07:35.921Z,80.30
2017-12-06T04:10:03.536Z,80.30
2017-12-06T04:12:32.737Z,80.10
2017-12-06T04:15:01.084Z,79.90
2017-12-06T04:17:28.768Z,80.00
2017-12-06T04:19:56.449Z,79.90
2017-12-06T04:22:25.541Z,79.80
2017-12-06T04:24:53.148Z,79.70
2017-12-06T04:27:20.764Z,79.80
2017-12-06T04:29:49.245Z,79.90
2017-12-06T04:32:17.629Z,79.90
2017-12-06T04:34:46.736Z,80.00
2017-12-06T04:37:15.100Z,80.60
2017-12-06T04:39:43.492Z,79.20
2017-12-06T04:42:11.146Z,79.90
2017-12-06T04:44:39.511Z,80.00
2017-12-06T04:47:07.179Z,80.10
2017-12-06T04:49:34.784Z,80.20
2017-12-06T04:52:02.368Z,80.30
2017-12-06T04:54:29.968Z,80.50
2017-12-06T04:56:58.365Z,80.70
2017-12-06T04:59:26.760Z,80.60
2017-12-06T05:01:55.124Z,80.70
2017-12-06T05:04:23.488Z,80.70
2017-12-06T05:06:52.620Z,80.70
2017-12-06T05:09:20.217Z,80.70
2017-12-06T05:11:47.830Z,80.80
2017-12-06T05:14:16.180Z,81.00
2017-12-06T05:16:43.800Z,80.90
2017-12-06T05:19:11.387Z,81.00
2017-12-06T05:21:39.004Z,81.40
2017-12-06T05:24:07.364Z,81.80
2017-12-06T05:26:35.839Z,82.70
2017-12-06T05:29:03.495Z,81.80
2017-12-06T05:31:31.160Z,81.90
2017-12-06T05:34:00.256Z,82.00
2017-12-06T05:36:27.916Z,82.00
2017-12-06T05:38:57.003Z,82.00
2017-12-06T05:41:24.588Z,82.00
2017-12-06T05:43:52.965Z,82.00
2017-12-06T05:46:21.327Z,82.70
2017-12-06T05:48:49.812Z,81.90
2017-12-06T05:51:18.205Z,81.70
2017-12-06T05:53:45.812Z,81.70
2017-12-06T05:56:13.424Z,81.30
2017-12-06T05:58:41.143Z,81.40
2017-12-06T06:01:08.740Z,81.60
2017-12-06T06:03:37.106Z,81.50
2017-12-06T06:06:04.693Z,81.50
2017-12-06T06:08:32.305Z,81.50
2017-12-06T06:10:59.913Z,81.40
2017-12-06T06:13:28.284Z,81.10
2017-12-06T06:15:56.636Z,81.90
2017-12-06T06:18:24.239Z,82.00
2017-12-06T06:20:52.586Z,83.10
2017-12-06T06:23:20.257Z,82.30
2017-12-06T06:25:47.931Z,82.50
2017-12-06T06:28:17.024Z,83.10
2017-12-06T06:30:46.228Z,83.20
2017-12-06T06:33:14.608Z,84.10
2017-12-06T06:35:42.980Z,83.30
2017-12-06T06:38:10.577Z,83.30
2017-12-06T06:40:38.961Z,83.50
2017-12-06T06:43:06.535Z,83.40
2017-12-06T06:45:34.141Z,83.30
2017-12-06T06:48:01.733Z,83.50
2017-12-06T06:50:30.098Z,83.40
2017-12-06T06:52:57.757Z,83.30
2017-12-06T06:55:26.127Z,83.40
2017-12-06T06:57:53.716Z,83.30
2017-12-06T07:00:22.096Z,82.90
2017-12-06T07:02:50.557Z,83.00
2017-12-06T07:05:18.928Z,83.00
2017-12-06T07:07:46.517Z,83.00
2017-12-06T07:10:14.888Z,83.10
2017-12-06T07:12:43.248Z,83.10
2017-12-06T07:15:11.796Z,83.10
2017-12-06T07:17:39.495Z,83.20
2017-12-06T07:20:07.839Z,83.30
2017-12-06T07:22:35.440Z,83.40
2017-12-06T07:25:03.793Z,83.50
2017-12-06T07:27:31.404Z,83.50
2017-12-06T07:29:59.761Z,83.30
2017-12-06T07:32:28.151Z,83.10
2017-12-06T07:34:55.766Z,83.10
2017-12-06T07:37:23.380Z,83.10
2017-12-06T07:39:51.737Z,83.00
2017-12-06T07:42:20.112Z,83.30
2017-12-06T07:44:47.742Z,83.20
2017-12-06T07:47:15.353Z,83.20
2017-12-06T07:49:43.720Z,83.20
2017-12-06T07:52:11.324Z,83.10
2017-12-06T07:54:38.944Z,83.20
2017-12-06T07:57:08.085Z,82.90
2017-12-06T07:59:35.673Z,82.80
2017-12-06T08:02:03.377Z,83.20
2017-12-06T08:04:31.033Z,83.00
2017-12-06T08:06:58.631Z,82.60
2017-12-06T08:09:26.363Z,82.30
2017-12-06T08:11:54.021Z,82.30
2017-12-06T08:14:23.221Z,82.30
2017-12-06T08:16:51.576Z,82.30
2017-12-06T08:19:19.265Z,82.30
2017-12-06T08:21:47.621Z,82.30
2017-12-06T08:24:15.295Z,82.30
2017-12-06T08:26:42.960Z,82.30
2017-12-06T08:29:10.563Z,82.30
2017-12-06T08:31:38.184Z,82.30
2017-12-06T08:34:06.555Z,82.20
2017-12-06T08:36:34.141Z,82.10
2017-12-06T08:39:02.525Z,81.90
2017-12-06T08:41:30.988Z,82.10
2017-12-06T08:44:00.104Z,82.20
2017-12-06T08:46:28.460Z,82.30
2017-12-06T08:48:56.861Z,82.00
2017-12-06T08:51:25.207Z,82.20
2017-12-06T08:53:52.788Z,82.20
2017-12-06T08:56:21.904Z,82.30
2017-12-06T08:58:50.247Z,82.10
2017-12-06T09:01:17.851Z,82.00
2017-12-06T09:03:46.208Z,82.00
2017-12-06T09:06:13.865Z,82.00
2017-12-06T09:08:43.061Z,81.90
2017-12-06T09:11:10.723Z,81.80
2017-12-06T09:13:39.075Z,81.90
2017-12-06T09:16:06.680Z,81.90
2017-12-06T09:18:35.027Z,81.80
2017-12-06T09:21:02.712Z,81.80
2017-12-06T09:23:30.377Z,81.70
2017-12-06T09:25:57.991Z,81.60
2017-12-06T09:28:25.577Z,81.60
2017-12-06T09:30:53.183Z,81.40
2017-12-06T09:33:21.640Z,81.30
2017-12-06T09:35:50.013Z,81.30
2017-12-06T09:38:18.370Z,81.10
2017-12-06T09:40:46.051Z,81.10
2017-12-06T09:43:13.715Z,81.00
2017-12-06T09:45:41.342Z,81.10
2017-12-06T09:48:09.110Z,80.90
2017-12-06T09:50:36.812Z,80.80
2017-12-06T09:53:05.287Z,80.60
2017-12-06T09:55:33.001Z,80.50
2017-12-06T09:58:01.356Z,80.60
2017-12-06T10:00:29.820Z,80.30
2017-12-06T10:02:57.423Z,80.30
2017-12-06T10:05:25.047Z,80.10
2017-12-06T10:07:52.699Z,80.10
2017-12-06T10:10:21.788Z,80.20
2017-12-06T10:12:49.401Z,80.20
2017-12-06T10:15:16.984Z,80.30
2017-12-06T10:17:44.592Z,80.30
2017-12-06T10:20:12.206Z,80.00
2017-12-06T10:22:39.808Z,79.80
2017-12-06T10:25:07.422Z,79.70
2017-12-06T10:27:35.032Z,79.70
2017-12-06T10:30:02.639Z,79.80
2017-12-06T10:32:30.313Z,80.50
2017-12-06T10:34:58.031Z,79.70
2017-12-06T10:37:26.382Z,79.70
2017-12-06T10:39:54.056Z,79.60
2017-12-06T10:42:21.724Z,79.40
2017-12-06T10:44:49.384Z,79.30
2017-12-06T10:47:17.769Z,79.20
2017-12-06T10:49:45.433Z,79.10
2017-12-06T10:52:13.049Z,79.50
2017-12-06T10:54:40.680Z,79.30
2017-12-06T10:57:09.137Z,79.00
2017-12-06T10:59:36.791Z,78.80
2017-12-06T11:02:04.461Z,78.60
2017-12-06T11:04:32.053Z,78.30
2017-12-06T11:06:59.689Z,78.30
2017-12-06T11:09:27.275Z,79.10
2017-12-06T11:11:54.884Z,78.20
2017-12-06T11:14:22.473Z,78.30
2017-12-06T11:16:50.849Z,78.90
2017-12-06T11:19:18.434Z,78.00
2017-12-06T11:21:46.849Z,78.30
2017-12-06T11:24:14.440Z,78.30
2017-12-06T11:26:43.631Z,78.70
2017-12-06T11:29:11.221Z,78.70
2017-12-06T11:31:39.617Z,78.50
2017-12-06T11:34:07.973Z,78.40
2017-12-06T11:36:35.566Z,78.40
2017-12-06T11:39:03.173Z,78.20
2017-12-06T11:41:30.852Z,78.00
2017-12-06T11:43:58.507Z,77.90
2017-12-06T11:46:27.595Z,77.90
2017-12-06T11:48:55.210Z,77.90
2017-12-06T11:51:22.804Z,77.80
2017-12-06T11:53:50.403Z,77.80
2017-12-06T11:56:17.987Z,77.50
2017-12-06T11:58:45.597Z,77.50
2017-12-06T12:01:13.175Z,77.50
2017-12-06T12:03:42.371Z,77.40
2017-12-06T12:06:09.958Z,77.20
2017-12-06T12:08:38.416Z,77.00
2017-12-06T12:11:07.616Z,77.00
2017-12-06T12:13:35.234Z,76.90
2017-12-06T12:16:02.816Z,77.10
2017-12-06T12:18:30.419Z,76.90
2017-12-06T12:20:58.763Z,77.30
2017-12-06T12:23:26.440Z,77.20
2017-12-06T12:25:54.033Z,77.10
2017-12-06T12:28:22.475Z,77.00
2017-12-06T12:30:50.065Z,77.00
2017-12-06T12:33:18.527Z,76.90
2017-12-06T12:35:46.330Z,76.90
2017-12-06T12:38:14.008Z,76.90
2017-12-06T12:40:41.628Z,77.10
2017-12-06T12:43:09.281Z,77.00
2017-12-06T12:45:36.945Z,77.10
2017-12-06T12:48:06.132Z,77.00
2017-12-06T12:50:33.740Z,77.00
2017-12-06T12:53:01.329Z,77.00
2017-12-06T12:55:28.937Z,77.20
2017-12-06T12:57:57.304Z,77.20
2017-12-06T13:00:25.666Z,77.10
2017-12-06T13:02:53.361Z,77.00
2017-12-06T13:05:21.713Z,77.60
2017-12-06T13:07:49.379Z,77.10
2017-12-06T13:10:17.048Z,77.10
2017-12-06T13:12:46.165Z,77.20
2017-12-06T13:15:14.521Z,77.20
2017-12-06T13:17:43.640Z,76.90
2017-12-06T13:20:12.009Z,77.00
2017-12-06T13:22:39.768Z,77.00
2017-12-06T13:25:07.343Z,77.20
2017-12-06T13:27:35.807Z,77.60
2017-12-06T13:30:03.396Z,77.10
2017-12-06T13:32:31.775Z,77.40
2017-12-06T13:35:00.115Z,77.20
2017-12-06T13:37:27.719Z,77.20
2017-12-06T13:39:56.073Z,77.40
2017-12-06T13:42:23.728Z,77.40
2017-12-06T13:44:51.400Z,77.40
2017-12-06T13:47:19.033Z,77.20
2017-12-06T13:49:46.681Z,77.30
2017-12-06T13:52:14.265Z,77.40
2017-12-06T13:54:41.877Z,77.30
2017-12-06T13:57:09.477Z,77.30
2017-12-06T13:59:37.081Z,77.30
2017-12-06T14:02:05.439Z,77.50
2017-12-06T14:04:33.819Z,77.50
2017-12-06T14:07:02.164Z,77.40
2017-12-06T14:09:29.764Z,77.40
2017-12-06T14:11:58.113Z,77.50
2017-12-06T14:14:25.716Z,77.50
2017-12-06T14:16:54.079Z,78.40
2017-12-06T14:19:23.197Z,77.50
2017-12-06T14:21:51.665Z,77.50
2017-12-06T14:24:19.325Z,77.50
2017-12-06T14:26:46.917Z,77.40
2017-12-06T14:29:15.269Z,77.10
2017-12-06T14:31:42.862Z,77.00
2017-12-06T14:34:10.550Z,77.00
2017-12-06T14:36:38.153Z,77.80
2017-12-06T14:39:07.453Z,76.80
2017-12-06T14:41:35.060Z,76.50
2017-12-06T14:44:02.643Z,76.30
2017-12-06T14:46:30.337Z,76.50
2017-12-06T14:48:57.933Z,76.30
2017-12-06T14:51:25.539Z,76.10
2017-12-06T14:53:53.120Z,76.10
2017-12-06T14:56:20.716Z,76.20
2017-12-06T14:58:48.306Z,76.10
2017-12-06T15:01:15.929Z,76.00
2017-12-06T15:03:44.389Z,75.80
2017-12-06T15:06:11.976Z,75.70
2017-12-06T15:08:40.412Z,75.60
2017-12-06T15:11:07.988Z,75.60
2017-12-06T15:13:36.476Z,75.10
2017-12-06T15:16:04.061Z,75.10
2017-12-06T15:18:32.445Z,75.10
2017-12-06T15:21:00.037Z,75.00
2017-12-06T15:23:27.649Z,75.30
2017-12-06T15:25:56.000Z,74.90
2017-12-06T15:28:23.712Z,74.90
2017-12-06T15:30:52.160Z,75.10
2017-12-06T15:33:19.820Z,75.10
2017-12-06T15:35:47.479Z,74.90
2017-12-06T15:38:15.968Z,75.40
2017-12-06T15:40:43.561Z,75.40
2017-12-06T15:43:11.148Z,74.70
2017-12-06T15:45:38.852Z,74.70
2017-12-06T15:48:06.441Z,74.60
2017-12-06T15:50:34.813Z,74.60
2017-12-06T15:53:03.272Z,74.80
2017-12-06T15:55:30.941Z,74.80
2017-12-06T15:58:00.036Z,74.60
2017-12-06T16:00:27.627Z,74.50
2017-12-06T16:02:55.257Z,74.60
2017-12-06T16:05:22.867Z,74.50
2017-12-06T16:07:50.575Z,74.70
2017-12-06T16:10:18.240Z,74.70
2017-12-06T16:12:45.917Z,75.20
2017-12-06T16:15:14.287Z,75.40
2017-12-06T16:17:41.950Z,74.70
2017-12-06T16:20:09.567Z,74.60
2017-12-06T16:22:37.149Z,74.60
2017-12-06T16:25:04.758Z,74.80
2017-12-06T16:27:33.216Z,74.70
2017-12-06T16:30:00.796Z,74.70
2017-12-06T16:32:29.257Z,74.90
2017-12-06T16:35:08.901Z,74.70
2017-12-06T16:37:38.105Z,74.80
2017-12-06T16:40:05.689Z,74.90
2017-12-06T16:42:34.056Z,75.00
2017-12-06T16:45:02.416Z,75.70
2017-12-06T16:47:30.900Z,75.00
2017-12-06T16:49:58.569Z,74.90
2017-12-06T16:52:26.224Z,75.00
2017-12-06T16:54:53.892Z,75.20
2017-12-06T16:57:21.553Z,75.30
2017-12-06T16:59:49.135Z,75.40
2017-12-06T17:02:17.500Z,75.30
2017-12-06T17:04:45.160Z,75.30
2017-12-06T17:07:12.768Z,75.20
2017-12-06T17:09:40.391Z,76.00
2017-12-06T17:12:08.041Z,75.00
2017-12-06T17:14:36.412Z,75.00
2017-12-06T17:17:03.992Z,75.00
2017-12-06T17:19:31.597Z,75.00
2017-12-06T17:21:59.209Z,74.90
2017-12-06T17:24:26.868Z,74.80
2017-12-06T17:26:54.439Z,75.50
2017-12-06T17:29:34.858Z,74.70
2017-12-06T17:32:02.556Z,74.40
2017-12-06T17:34:30.151Z,74.10
2017-12-06T17:36:57.776Z,74.40
2017-12-06T17:39:25.431Z,74.40
2017-12-06T17:41:54.536Z,74.40
2017-12-06T17:44:22.131Z,74.30
2017-12-06T17:46:49.756Z,74.20
2017-12-06T17:49:18.873Z,74.10
2017-12-06T17:51:47.231Z,74.10
2017-12-06T17:54:14.836Z,74.10
2017-12-06T17:56:42.456Z,74.20
2017-12-06T17:59:10.121Z,74.00
2017-12-06T18:01:37.725Z,73.70
2017-12-06T18:04:05.349Z,73.70
2017-12-06T18:06:32.957Z,73.70
2017-12-06T18:09:00.564Z,73.60
2017-12-06T18:11:28.167Z,73.50
2017-12-06T18:13:55.753Z,73.60
2017-12-06T18:16:23.450Z,73.40
2017-12-06T18:18:51.113Z,73.40
2017-12-06T18:21:18.775Z,73.50
2017-12-06T18:23:46.347Z,73.30
2017-12-06T18:26:13.991Z,73.10
2017-12-06T18:28:41.664Z,73.00
2017-12-06T18:31:09.327Z,72.90
2017-12-06T18:33:36.992Z,72.90
2017-12-06T18:36:04.576Z,72.80
2017-12-06T18:38:32.961Z,72.60
2017-12-06T18:41:00.545Z,72.60
2017-12-06T18:43:28.153Z,72.50
2017-12-06T18:45:55.817Z,72.50
2017-12-06T18:48:23.477Z,72.60
2017-12-06T18:50:51.065Z,72.60
2017-12-06T18:53:19.437Z,72.60
2017-12-06T18:55:47.785Z,72.60
2017-12-06T18:58:15.398Z,72.40
2017-12-06T19:00:43.020Z,72.50
2017-12-06T19:03:10.628Z,72.50
2017-12-06T19:05:38.210Z,72.60
2017-12-06T19:08:05.812Z,72.30
2017-12-06T19:10:33.465Z,72.60
2017-12-06T19:13:01.191Z,73.50
2017-12-06T19:15:28.776Z,72.20
2017-12-06T19:17:56.376Z,72.10
2017-12-06T19:20:24.963Z,72.30
2017-12-06T19:22:53.443Z,72.20
2017-12-06T19:25:21.803Z,72.10
2017-12-06T19:27:49.461Z,72.00
2017-12-06T19:30:17.120Z,72.80
2017-12-06T19:32:46.198Z,72.10
2017-12-06T19:35:13.880Z,72.20
2017-12-06T19:37:41.544Z,72.00
2017-12-06T19:40:10.654Z,71.90
2017-12-06T19:42:39.009Z,72.10
2017-12-06T19:45:07.421Z,72.00
2017-12-06T19:47:35.890Z,72.00
2017-12-06T19:50:03.491Z,72.00
2017-12-06T19:52:31.068Z,72.30
2017-12-06T19:54:58.764Z,71.80
2017-12-06T19:57:27.113Z,71.80
2017-12-06T19:59:54.716Z,71.70
2017-12-06T20:02:22.371Z,71.70
2017-12-06T20:04:50.785Z,72.50
2017-12-06T20:07:18.364Z,71.70
2017-12-06T20:09:45.973Z,71.70
2017-12-06T20:12:13.577Z,71.60
2017-12-06T20:14:41.196Z,71.70
2017-12-06T20:17:09.832Z,71.70
2017-12-06T20:19:37.421Z,71.60
2017-12-06T20:22:05.031Z,71.70
2017-12-06T20:24:33.381Z,71.70
2017-12-06T20:27:02.497Z,71.70
2017-12-06T20:29:30.865Z,71.70
2017-12-06T20:31:58.521Z,71.60
2017-12-06T20:34:27.612Z,71.60
2017-12-06T20:36:55.996Z,72.40
2017-12-06T20:39:23.658Z,71.60
2017-12-06T20:41:51.272Z,71.40
2017-12-06T20:44:18.857Z,71.50
2017-12-06T20:46:46.553Z,71.40
2017-12-06T20:49:14.162Z,71.40
2017-12-06T20:51:41.763Z,71.70
2017-12-06T20:54:10.968Z,71.70
2017-12-06T20:56:38.543Z,71.60
2017-12-06T20:59:06.918Z,72.50
2017-12-06T21:01:35.287Z,72.10
2017-12-06T21:04:02.946Z,71.70
2017-12-06T21:06:31.336Z,71.80
2017-12-06T21:08:59.716Z,71.80
2017-12-06T21:11:27.372Z,71.70
2017-12-06T21:13:55.098Z,71.60
2017-12-06T21:16:22.677Z,71.50
2017-12-06T21:18:50.352Z,71.60
2017-12-06T21:21:18.024Z,71.50
2017-12-06T21:23:47.221Z,71.60
2017-12-06T21:26:14.805Z,71.50
2017-12-06T21:28:43.260Z,71.50
2017-12-06T21:31:12.461Z,71.50
2017-12-06T21:33:40.092Z,71.40
2017-12-06T21:36:07.672Z,71.30
2017-12-06T21:38:35.349Z,71.40
2017-12-06T21:41:03.823Z,71.50
2017-12-06T21:43:31.496Z,71.50
2017-12-06T21:45:59.913Z,71.40
2017-12-06T21:48:27.488Z,71.50
2017-12-06T21:50:55.195Z,71.40
2017-12-06T21:53:24.280Z,71.50
2017-12-06T21:55:51.957Z,71.50
2017-12-06T21:58:21.157Z,71.60
2017-12-06T22:00:48.821Z,71.50
2017-12-06T22:03:16.490Z,71.60
2017-12-06T22:05:44.135Z,71.70
2017-12-06T22:08:11.707Z,71.70
2017-12-06T22:10:40.188Z,71.40
2017-12-06T22:13:07.849Z,71.40
2017-12-06T22:15:35.512Z,71.40
2017-12-06T22:18:03.135Z,71.60
2017-12-06T22:20:30.745Z,71.50
2017-12-06T22:22:58.324Z,71.50
2017-12-06T22:25:26.688Z,71.50
2017-12-06T22:27:55.047Z,72.20
2017-12-06T22:30:22.640Z,71.50
2017-12-06T22:32:51.008Z,71.70
2017-12-06T22:35:19.354Z,72.60
2017-12-06T22:37:47.027Z,71.70
2017-12-06T22:40:14.612Z,71.80
2017-12-06T22:42:42.972Z,71.60
2017-12-06T22:45:16.026Z,71.80
2017-12-06T22:47:43.631Z,71.70
2017-12-06T22:50:11.288Z,71.70
2017-12-06T22:52:38.896Z,71.80
2017-12-06T22:55:06.472Z,71.70
2017-12-06T22:57:34.080Z,71.70
2017-12-06T23:00:01.741Z,71.60
2017-12-06T23:02:29.346Z,71.20
2017-12-06T23:04:56.947Z,71.60
2017-12-06T23:07:25.028Z,71.60
2017-12-06T23:09:52.612Z,71.50
2017-12-06T23:12:20.960Z,71.40
2017-12-06T23:14:48.631Z,71.30
2017-12-06T23:17:16.211Z,71.20
2017-12-06T23:19:44.677Z,71.10
2017-12-06T23:22:12.375Z,71.10
2017-12-06T23:24:40.749Z,71.10
2017-12-06T23:27:09.101Z,71.10
2017-12-06T23:29:36.746Z,71.10
2017-12-06T23:32:04.424Z,71.00
2017-12-06T23:34:32.089Z,71.00
2017-12-06T23:36:59.753Z,71.10
2017-12-06T23:39:27.413Z,71.00
2017-12-06T23:41:55.073Z,71.10
2017-12-06T23:44:22.736Z,71.10
2017-12-06T23:46:51.081Z,70.90
2017-12-06T23:49:18.714Z,70.90
2017-12-06T23:51:46.287Z,70.80
2017-12-06T23:54:13.891Z,70.80
2017-12-06T23:56:41.490Z,70.70
2017-12-06T23:59:10.517Z,70.80
